Flight Track Log - Related Links

Times and Time Zones

All times are in EDT time to prevent confusion due to time zone crossing. See the SKW6377 flight status page for this flight to view local times or setup timezone preferences in your user account.

Time Position Orientation Groundspeed Altitude Reporting Facility
EDT Latitude Longitude Course Direction KTS MPH feet Rate Location/Type
Fri 02:43:00 PM 42.8740 -106.2667 180° South  Level FlightAware Approximate
Fri 02:43:00 PM 42.6989 -106.5228 169° South 268 308 12,700  Level Denver Center
Fri 02:44:00 PM 42.7644 -106.2667 180° South  Level FlightAware Approximate
Fri 02:44:02 PM 42.6036 -106.5039 172° South 295 339 14,200  Level Denver Center
Fri 02:45:00 PM 42.6660 -106.2638 176° South  Level FlightAware Approximate
Fri 02:45:04 PM 42.5086 -106.4819 170° South 347 399 15,600  Level Denver Center
Fri 02:46:00 PM 42.5679 -106.2556 176° South  Level FlightAware Approximate
Fri 02:46:06 PM 42.3964 -106.4558 170° South 365 420 17,300  Level Denver Center
Fri 02:47:00 PM 42.4696 -106.2500 180° South  Level FlightAware Approximate
Fri 02:47:08 PM 42.2972 -106.4336 171° South 375 432 18,400  Level Denver Center
Fri 02:48:10 PM 42.1786 -106.4072 171° South 384 442 19,800 1,258 Climbing Denver Center
Fri 02:49:12 PM 42.0764 -106.3842 170° South 388 447 21,000 1,113 Climbing Denver Center
Fri 02:50:14 PM 41.9733 -106.3611 171° South 391 450 22,100 1,220 Climbing Denver Center
Fri 02:51:15 PM 41.8511 -106.3344 171° South 396 456 23,500 1,220 Climbing Denver Center
Fri 02:52:17 PM 41.7469 -106.3100 170° South 398 458 24,600 1,210 Climbing Denver Center
Fri 02:53:19 PM 41.6244 -106.2833 171° South 399 459 26,000 1,161 Climbing Denver Center
Fri 02:54:21 PM 41.5181 -106.2597 171° South 403 464 27,000 484 Climbing Denver Center
Fri 02:55:23 PM 41.3942 -106.2183 166° South 411 473 27,000  Level Denver Center
Fri 02:56:26 PM 41.2803 -106.1681 162° South 432 497 27,000  Level Denver Center
Fri 02:57:28 PM 41.1519 -106.1150 163° South 440 506 27,000  Level Denver Center
Fri 02:58:30 PM 41.0428 -106.0547 157° South 444 511 27,000 -48 Level Denver Center
Fri 02:59:32 PM 40.9208 -105.9853 157° South 435 501 26,900 -397 Descending Denver Center
Fri 03:00:46 PM 40.8281 -105.8464 131° Southeast 434 499 26,100 -706 Descending Denver Center
Fri 03:01:48 PM 40.7583 -105.7186 126° Southeast 428 493 25,300 -871 Descending Denver Center
Fri 03:02:50 PM 40.6897 -105.5953 126° Southeast 418 481 24,300 -1,161 Descending Denver Center
Fri 03:03:52 PM 40.6150 -105.4642 127° Southeast 386 444 22,900 -1,306 Descending Denver Center
Fri 03:04:54 PM 40.5542 -105.3503 125° Southeast 377 434 21,600 -1,210 Descending Denver Center
Fri 03:05:56 PM 40.4964 -105.2458 126° Southeast 356 410 20,400 -1,258 Descending Denver Center
Fri 03:06:58 PM 40.4119 -105.1722 146° Southeast 345 397 19,000 -1,258 Descending Denver Center
Fri 03:08:00 PM 40.3317 -105.1092 149° Southeast 336 387 17,800 -1,161 Descending Denver Center
Fri 03:09:02 PM 40.2450 -105.0400 149° Southeast 338 389 16,600 -1,258 Descending Denver Center
Fri 03:10:04 PM 40.1667 -104.9772 149° Southeast 330 380 15,200 -1,306 Descending Denver Center
Fri 03:11:06 PM 40.0897 -104.9156 148° Southeast 325 374 13,900 -1,065 Descending Denver Center
Fri 03:12:08 PM 40.0114 -104.8536 149° Southeast 308 354 13,000 -774 Descending Denver Center
Fri 03:13:10 PM 39.9353 -104.8233 163° South 298 343 12,300 -919 Descending Denver Center
Fri 03:14:12 PM 39.8533 -104.8375 188° South 276 318 11,100 -581 Descending Denver Center
Fri 03:15:14 PM 39.7811 -104.8561 191° South 245 282 11,100  Level Denver Center
Fri 03:16:16 PM 39.7136 -104.8739 191° South 248 285 11,100 -339 Level Denver Center
Fri 03:17:18 PM 39.6428 -104.8703 178° South 260 299 10,400 -774 Descending Denver Center
Fri 03:18:20 PM 39.6136 -104.7983 118° Southeast 254 292 9,500 -629 Descending Denver Center
Fri 03:19:22 PM 39.6492 -104.7272 57° Northeast 242 278 9,100 -629 Descending Denver Center
Fri 03:20:24 PM 39.7075 -104.6872 28° Northeast 227 261 8,200 -871 Descending Denver Center

Login

Don't have an account? Register now (free) for customized features, flight alerts, and more!